Latest Weather Observations for Parafield

IDS60801

Issued at 2:41 pm CST Monday 23 September 2019 (issued every 10 minutes, with the page automatically refreshed every 10 minutes)

About weather observations | Map of weather stations | Latest weather observations for SA | Other Formats
Station Details ID: 023013 Name: PARAFIELD AIRPORT Lat: -34.80 Lon: 138.63 Height: 9.5 m
Data from the previous 72 hours. | See also: Recent months at Parafield
Date/Time
CST
Temp
°C
App
Temp
°C
Dew
Point
°C
Rel
Hum
%
Delta-T
°C
Wind Press
QNH
hPa
Press
MSL
hPa
Rain since
9am
mm
Dir  Spd
km/h
Gust
km/h
Spd
kts
Gust
kts
23/02:30pm 14.9 10.3 5.4 53 4.5 SW 19 24 10 13 1029.9 1029.9 0.0
23/02:00pm 15.2 10.4 5.4 52 4.7 WSW 20 28 11 15 1029.9 1029.9 0.0
23/01:30pm 15.8 10.7 3.3 43 5.7 SW 19 32 10 17 1030.0 1030.0 0.0
23/01:00pm 16.6 12.5 6.4 51 5.0 SW 17 24 9 13 1030.0 1030.0 0.0
23/12:30pm 15.3 10.8 6.8 57 4.1 WSW 20 32 11 17 1030.3 1030.3 0.0
23/12:00pm 15.1 10.8 7.9 62 3.6 W 20 28 11 15 1030.4 1030.4 0.0
23/11:30am 15.0 10.5 6.8 58 4.0 WSW 20 32 11 17 1030.5 1030.5 0.0
23/11:00am 14.4 9.8 5.5 55 4.2 SW 19 30 10 16 1030.7 1030.7 0.0
23/10:30am 14.6 10.8 7.4 62 3.5 WSW 17 22 9 12 1030.6 1030.6 0.0
23/10:00am 14.2 10.3 7.3 63 3.4 WSW 17 24 9 13 1030.7 1030.7 0.0
23/09:30am 14.1 9.6 6.0 58 3.8 WSW 19 24 10 13 1030.6 1030.6 0.0
23/09:00am 13.8 9.6 5.9 59 3.7 SW 17 22 9 12 1030.5 1030.5 3.6
23/08:30am 12.4 8.1 7.1 70 2.5 SW 19 24 10 13 1030.5 1030.5 3.6
23/08:00am 12.3 8.2 6.4 67 2.8 SW 17 24 9 13 1029.9 1029.9 3.6
23/07:30am 11.8 11.3 9.5 86 1.2 N 2 6 1 3 1029.9 1029.9 3.6
23/07:00am 9.4 8.2 9.4 100 0.0 NNE 6 7 3 4 1029.7 1029.7 3.6
23/06:30am 8.1 7.6 7.8 98 0.1 CALM 0 0 0 0 1029.4 1029.4 3.6
23/06:00am 7.9 5.8 5.9 87 0.9 WSW 6 7 3 4 1028.9 1028.9 3.4
23/05:30am 8.9 5.9 6.2 83 1.2 SW 11 13 6 7 1028.6 1028.6 3.4
23/05:00am 9.4 5.7 6.3 81 1.4 SW 15 20 8 11 1028.1 1028.1 3.4
23/04:30am 9.5 5.9 6.8 83 1.3 WSW 15 19 8 10 1027.9 1027.9 3.4
23/04:00am 9.5 5.9 6.6 82 1.4 WSW 15 19 8 10 1027.6 1027.6 3.4
23/03:30am 9.4 6.2 6.7 83 1.3 SW 13 17 7 9 1027.4 1027.4 3.4
23/03:00am 9.7 7.2 8.3 91 0.7 WSW 11 15 6 8 1027.2 1027.2 3.4
23/02:30am 8.9 6.1 7.0 88 0.9 SW 11 15 6 8 1027.2 1027.2 3.4
23/02:00am 9.0 5.9 7.1 88 0.9 WSW 13 20 7 11 1027.1 1027.1 3.4
23/01:30am 8.6 6.4 8.0 96 0.3 WSW 9 9 5 5 1026.9 1026.9 3.4
23/01:00am 9.4 7.2 9.4 100 0.0 SW 11 15 6 8 1026.8 1026.8 3.4
23/12:30am 9.1 6.4 9.1 100 0.0 W 13 15 7 8 1026.8 1026.8 3.4
23/12:00am 9.1 6.4 9.0 99 0.0 W 13 17 7 9 1026.9 1026.9 3.4
 
Date/Time
CST
Temp
°C
App
Temp
°C
Dew
Point
°C
Rel
Hum
%
Delta-T
°C
Wind Press
QNH
hPa
Press
MSL
hPa
Rain since
9am
mm
Dir  Spd
km/h
Gust
km/h
Spd
kts
Gust
kts
22/11:30pm 9.3 6.7 9.2 99 0.0 W 13 17 7 9 1026.8 1026.8 3.4
22/11:00pm 9.8 7.3 9.8 100 0.0 W 13 17 7 9 1026.8 1026.8 3.4
22/10:30pm 9.5 7.3 9.5 100 0.0 W 11 17 6 9 1026.7 1026.7 3.4
22/10:00pm 9.7 7.2 9.7 100 0.0 WSW 13 19 7 10 1026.5 1026.5 3.4
22/09:30pm 10.8 7.1 10.0 95 0.4 W 20 28 11 15 1026.2 1026.2 3.0
22/09:00pm 10.3 7.6 10.3 100 0.0 W 15 22 8 12 1026.1 1026.1 3.0
22/08:32pm 10.1 6.3 9.8 98 0.2 W 20 28 11 15 1025.9 1025.9 3.0
22/08:30pm 10.2 6.4 9.9 98 0.2 W 20 28 11 15 1026.0 1026.0 3.0
22/08:14pm 9.9 5.0 7.0 82 1.4 W 22 46 12 25 1025.9 1025.9 2.0
22/08:13pm 10.0 5.1 6.7 80 1.5 WNW 22 46 12 25 1026.0 1026.0 1.8
22/08:11pm 11.8 8.0 9.2 84 1.3 WNW 19 41 10 22 1025.9 1025.9 0.4
22/08:00pm 12.1 8.6 8.6 79 1.7 NW 17 22 9 12 1025.4 1025.4 0.2
22/07:30pm 11.3 7.9 7.6 78 1.8 WNW 15 22 8 12 1025.3 1025.3 0.2
22/07:00pm 11.8 8.1 8.1 78 1.8 WNW 17 20 9 11 1025.0 1025.0 0.2
22/06:30pm 12.3 7.2 7.6 73 2.3 WNW 24 32 13 17 1024.8 1024.8 0.2
22/06:00pm 12.8 6.9 7.7 71 2.5 WNW 28 37 15 20 1024.5 1024.5 0.2
22/05:30pm 13.2 8.0 7.2 67 2.9 WNW 24 33 13 18 1024.1 1024.0 0.2
22/05:00pm 12.8 8.6 8.3 74 2.2 WNW 20 32 11 17 1024.1 1024.0 0.2
22/04:30pm 14.8 10.1 7.6 62 3.5 NW 22 39 12 21 1023.9 1023.8 0.2
22/04:00pm 14.1 8.2 6.0 58 3.9 WNW 26 37 14 20 1024.0 1023.9 0.2
22/03:40pm 14.3 8.4 7.4 63 3.4 WNW 28 50 15 27 1023.7 1023.6 0.2
22/03:30pm 14.5 7.3 5.0 53 4.4 NW 32 44 17 24 1023.7 1023.6 0.2
22/03:00pm 16.0 10.2 6.4 53 4.7 WNW 26 41 14 22 1023.8 1023.7 0.2
22/02:30pm 15.4 9.5 5.9 53 4.5 WNW 26 39 14 21 1024.0 1023.9 0.2
22/02:00pm 15.6 9.1 6.3 54 4.5 WNW 30 41 16 22 1024.3 1024.3 0.2
22/01:30pm 16.4 10.8 7.3 55 4.5 NW 26 39 14 21 1024.3 1024.3 0.2
22/01:03pm 15.3 9.0 5.5 52 4.7 NW 28 46 15 25 1024.6 1024.6 0.2
22/01:00pm 16.4 10.9 7.6 56 4.4 WNW 26 37 14 20 1024.6 1024.6 0.2
22/12:30pm 15.5 9.8 6.8 56 4.2 WNW 26 39 14 21 1024.8 1024.8 0.2
22/12:00pm 15.2 9.6 7.0 58 4.0 WNW 26 35 14 19 1025.0 1025.0 0.2
22/11:30am 14.2 8.5 6.6 60 3.6 NW 26 39 14 21 1025.2 1025.2 0.0
22/11:00am 13.7 7.7 7.0 64 3.3 NW 28 35 15 19 1025.4 1025.4 0.0
22/10:30am 13.3 8.1 7.1 66 3.0 NW 24 35 13 19 1025.3 1025.3 0.0
22/10:00am 13.6 8.3 8.4 71 2.6 NW 26 33 14 18 1025.5 1025.5 0.0
22/09:30am 12.2 7.6 8.3 77 1.9 NW 22 33 12 18 1025.5 1025.5 0.0
22/09:00am 11.4 8.0 9.3 87 1.0 N 17 22 9 12 1025.4 1025.4 2.2
22/08:30am 9.2 6.5 9.1 99 0.0 NNE 13 15 7 8 1025.5 1025.5 2.2
22/08:00am 8.6 6.1 8.3 98 0.1 NNE 11 15 6 8 1025.4 1025.4 2.0
22/07:48am 8.4 6.3 8.3 99 0.0 NNE 9 15 5 8 1025.3 1025.3 2.0
22/07:31am 8.2 6.6 8.2 100 0.0 S 6 11 3 6 1025.2 1025.2 2.0
22/07:30am 8.1 6.5 8.1 100 0.0 SSW 6 11 3 6 1025.2 1025.2 2.0
22/07:00am 7.7 4.3 7.7 100 0.0 NNE 15 20 8 11 1024.8 1024.8 2.0
22/06:30am 7.2 4.1 7.2 100 0.0 NE 13 15 7 8 1024.5 1024.5 2.0
22/06:00am 7.0 3.8 7.0 100 0.0 NNE 13 15 7 8 1024.3 1024.3 2.0
22/05:30am 7.1 5.3 7.1 100 0.0 NNE 6 9 3 5 1023.9 1023.8 2.0
22/05:00am 7.3 4.6 7.3 100 0.0 N 11 17 6 9 1023.7 1023.6 2.0
22/04:30am 7.5 4.5 7.5 100 0.0 NNE 13 17 7 9 1023.3 1023.2 1.8
22/04:00am 7.2 4.8 6.9 98 0.1 NNE 9 13 5 7 1023.0 1022.9 1.8
22/03:30am 7.4 4.3 7.1 98 0.1 N 13 17 7 9 1023.0 1022.9 1.8
22/03:00am 7.1 4.2 6.7 97 0.2 NNE 11 13 6 7 1023.0 1022.9 1.8
22/02:30am 7.0 3.7 6.6 97 0.2 NNE 13 17 7 9 1023.1 1023.0 1.8
22/02:00am 6.9 3.6 6.6 98 0.1 NNE 13 19 7 10 1023.1 1023.0 1.8
22/01:30am 6.9 4.9 6.9 100 0.0 NE 7 9 4 5 1023.2 1023.1 1.8
22/01:00am 5.6 3.3 5.6 100 0.0 NE 7 11 4 6 1023.3 1023.2 1.8
22/12:30am 5.3 3.3 4.6 95 0.3 NNE 4 6 2 3 1023.4 1023.3 1.8
22/12:00am 6.0 3.4 3.2 82 1.2 WSW 6 6 3 3 1023.4 1023.3 1.8
 
Date/Time
CST
Temp
°C
App
Temp
°C
Dew
Point
°C
Rel
Hum
%
Delta-T
°C
Wind Press
QNH
hPa
Press
MSL
hPa
Rain since
9am
mm
Dir  Spd
km/h
Gust
km/h
Spd
kts
Gust
kts
21/11:30pm 7.4 4.5 4.5 82 1.3 W 9 13 5 7 1023.4 1023.3 1.8
21/11:00pm 7.8 4.9 4.9 82 1.3 WSW 9 11 5 6 1023.3 1023.2 1.8
21/10:30pm 8.2 4.7 5.3 82 1.3 W 13 17 7 9 1023.3 1023.2 1.8
21/10:00pm 8.1 4.9 5.0 81 1.4 W 11 15 6 8 1023.3 1023.2 1.8
21/09:30pm 8.7 4.8 5.3 79 1.5 W 15 17 8 9 1023.2 1023.1 1.8
21/09:00pm 9.4 5.2 5.9 79 1.6 W 17 24 9 13 1023.1 1023.0 1.8
21/08:30pm 9.0 6.9 8.4 96 0.3 W 9 15 5 8 1023.0 1022.9 1.6
21/08:00pm 8.9 7.3 8.6 98 0.1 SW 7 11 4 6 1022.8 1022.7 1.6
21/07:30pm 8.6 6.7 7.7 94 0.4 SW 7 11 4 6 1022.6 1022.5 1.6
21/07:00pm 9.1 6.7 7.1 87 0.9 SW 9 13 5 7 1022.1 1022.0 1.6
21/06:30pm 11.2 7.0 5.9 70 2.5 SW 17 24 9 13 1021.7 1021.6 0.4
21/06:00pm 11.3 7.8 5.6 68 2.6 WSW 13 19 7 10 1021.3 1021.3 0.4
21/05:30pm 12.5 7.9 5.4 62 3.3 WSW 19 24 10 13 1020.9 1020.9 0.4
21/05:00pm 13.5 9.0 6.1 61 3.5 SW 19 24 10 13 1020.7 1020.7 0.4
21/04:30pm 12.4 7.1 5.1 61 3.4 WSW 22 32 12 17 1020.3 1020.3 0.4
21/04:00pm 14.5 8.9 5.6 55 4.2 WSW 24 37 13 20 1019.9 1019.9 0.4
21/03:30pm 14.2 9.6 6.3 59 3.8 WSW 20 28 11 15 1019.6 1019.6 0.4
21/03:02pm 13.5 7.4 6.8 64 3.2 SW 28 46 15 25 1019.6 1019.6 0.4
21/03:00pm 13.5 7.2 7.5 67 2.9 SW 30 46 16 25 1019.6 1019.6 0.4
21/02:54pm 12.9 6.8 6.5 65 3.1 WSW 28 46 15 25 1019.4 1019.4 0.4
21/02:30pm 14.1 7.9 4.4 52 4.5 WSW 26 35 14 19 1019.1 1019.1 0.4
21/02:00pm 15.2 8.8 5.1 51 4.8 WSW 28 39 15 21 1019.0 1019.0 0.4
21/01:30pm 15.5 9.0 4.6 48 5.1 WSW 28 39 15 21 1018.9 1018.9 0.4
21/01:00pm 15.0 8.1 4.7 50 4.8 WSW 30 39 16 21 1018.7 1018.7 0.4
21/12:30pm 14.7 8.6 6.5 58 4.0 WSW 28 39 15 21 1018.6 1018.6 0.4
21/12:00pm 14.8 8.2 7.8 63 3.5 WSW 32 46 17 25 1018.4 1018.4 0.4
21/11:30am 14.8 8.5 7.6 62 3.6 SW 30 39 16 21 1018.0 1018.0 0.4
21/11:00am 13.2 6.7 8.1 71 2.5 SW 32 43 17 23 1017.5 1017.5 0.4
21/10:50am 14.0 8.3 8.4 69 2.8 SW 28 50 15 27 1017.4 1017.4 0.4
21/10:30am 13.7 6.6 7.9 68 2.9 SW 35 43 19 23 1017.2 1017.2 0.4
21/10:00am 12.5 6.9 8.8 78 1.8 SW 28 37 15 20 1017.1 1017.1 0.4
21/09:30am 11.0 4.6 8.6 85 1.2 SW 32 43 17 23 1017.0 1017.0 0.4
21/09:11am 12.4 6.2 7.7 73 2.3 SW 30 48 16 26 1016.6 1016.6 0.0
21/09:00am 11.6 5.8 8.1 79 1.7 WSW 28 39 15 21 1016.3 1016.3 14.2
21/08:30am 12.0 7.5 8.7 80 1.6 SW 22 32 12 17 1016.0 1016.0 14.2
21/08:24am 11.8 7.5 9.4 85 1.2 SW 22 30 12 16 1015.9 1015.9 14.2
21/08:03am 11.9 7.7 9.6 86 1.2 W 22 32 12 17 1015.5 1015.5 14.0
21/08:00am 11.6 7.4 9.7 88 1.0 W 22 32 12 17 1015.3 1015.3 14.0
21/07:30am 11.7 8.5 9.8 88 1.0 W 17 22 9 12 1014.9 1014.9 14.0
21/07:00am 10.7 7.3 9.0 89 0.8 W 17 20 9 11 1014.7 1014.7 14.0
21/06:30am 10.5 7.1 9.3 92 0.6 W 17 22 9 12 1014.3 1014.3 14.0
21/06:00am 10.6 6.6 9.0 90 0.8 W 20 30 11 16 1013.8 1013.8 14.0
21/05:30am 10.5 7.6 9.6 94 0.5 W 15 20 8 11 1013.5 1013.5 14.0
21/05:00am 10.5 6.2 9.4 93 0.5 WNW 22 30 12 16 1013.1 1013.1 14.0
21/04:30am 9.3 7.1 9.3 100 0.0 WNW 11 15 6 8 1012.7 1012.7 14.0
21/04:00am 9.7 8.3 9.7 100 0.0 WNW 7 11 4 6 1012.6 1012.6 14.0
21/03:30am 10.0 8.7 10.0 100 0.0 W 7 9 4 5 1012.7 1012.7 14.0
21/03:00am 10.2 8.1 9.9 98 0.2 W 11 15 6 8 1012.5 1012.5 14.0
21/02:30am 10.3 9.3 10.3 100 0.0 WNW 6 9 3 5 1012.5 1012.5 14.0
21/02:00am 10.2 9.2 10.2 100 0.0 NW 6 9 3 5 1012.7 1012.7 14.0
21/01:30am 10.1 8.8 10.1 100 0.0 SW 7 11 4 6 1012.8 1012.8 14.0
21/01:01am 10.0 8.9 10.0 100 0.0 SW 6 9 3 5 1013.7 1013.7 14.0
21/01:00am 10.0 8.9 10.0 100 0.0 SW 6 9 3 5 1013.7 1013.7 14.0
21/12:30am 10.0 8.7 10.0 100 0.0 WSW 7 9 4 5 1013.6 1013.6 14.0
21/12:24am 10.0 8.7 10.0 100 0.0 WSW 7 9 4 5 1013.8 1013.8 14.0
21/12:00am 9.9 8.6 9.9 100 0.0 SW 7 11 4 6 1013.7 1013.7 13.6
 
Date/Time
CST
Temp
°C
App
Temp
°C
Dew
Point
°C
Rel
Hum
%
Delta-T
°C
Wind Press
QNH
hPa
Press
MSL
hPa
Rain since
9am
mm
Dir  Spd
km/h
Gust
km/h
Spd
kts
Gust
kts
20/11:30pm 10.0 6.8 10.0 100 0.0 WSW 17 26 9 14 1013.2 1013.2 13.6
20/11:28pm 10.0 6.8 10.0 100 0.0 WSW 17 28 9 15 1013.2 1013.2 13.6
20/11:20pm 10.2 6.5 10.2 100 0.0 WSW 20 30 11 16 1013.7 1013.7 13.6
20/11:05pm 10.3 5.9 10.3 100 0.0 WSW 24 37 13 20 1013.3 1013.3 13.4
20/11:00pm 10.4 6.0 10.4 100 0.0 WSW 24 35 13 19 1013.6 1013.6 13.4
20/10:54pm 10.2 5.7 10.2 100 0.0 WSW 24 35 13 19 1013.6 1013.6 13.4
20/10:30pm 10.8 6.1 10.8 100 0.0 WSW 26 33 14 18 1013.4 1013.4 13.2
20/10:29pm 10.8 6.1 10.8 100 0.0 WSW 26 33 14 18 1013.4 1013.4 13.2
20/10:00pm 11.4 10.5 11.4 100 0.0 WNW 7 9 4 5 1013.7 1013.7 12.4
20/09:30pm 11.3 9.6 11.3 100 0.0 WNW 11 13 6 7 1013.8 1013.8 12.2
20/09:07pm 11.4 11.8 11.4 100 0.0 CALM 0 7 0 4 1013.8 1013.8 11.8
20/09:00pm 11.4 11.8 11.4 100 0.0 CALM 0 0 0 0 1013.8 1013.8 11.8
20/08:30pm 11.3 10.6 11.3 100 0.0 NW 6 7 3 4 1014.2 1014.2 10.8
20/08:00pm 11.5 9.5 11.5 100 0.0 W 13 17 7 9 1014.5 1014.5 9.8
20/07:47pm 11.4 9.4 11.4 100 0.0 W 13 19 7 10 1014.5 1014.5 9.2
20/07:34pm 11.4 9.4 11.4 100 0.0 W 13 24 7 13 1014.6 1014.6 9.0
20/07:30pm 11.8 10.7 11.8 100 0.0 W 9 13 5 7 1014.6 1014.6 8.6
20/07:20pm 11.6 10.4 11.6 100 0.0 W 9 13 5 7 1014.6 1014.6 7.8
20/07:03pm 11.8 9.9 11.8 100 0.0 W 13 17 7 9 1014.8 1014.8 6.6
20/07:00pm 11.7 9.8 11.7 100 0.0 W 13 17 7 9 1014.6 1014.6 6.0
20/06:30pm 11.7 10.9 11.7 100 0.0 W 7 11 4 6 1013.9 1013.9 3.6
20/06:26pm 11.6 10.4 11.6 100 0.0 WSW 9 15 5 8 1013.8 1013.8 3.4
20/06:00pm 11.7 10.1 11.7 100 0.0 WSW 11 19 6 10 1013.5 1013.5 2.0
20/05:38pm 11.9 9.3 11.9 100 0.0 W 17 24 9 13 1014.3 1014.3 0.4
20/05:30pm 12.0 9.3 11.7 98 0.2 WSW 17 20 9 11 1013.5 1013.5 0.4
20/05:20pm 12.2 9.4 11.3 94 0.5 W 17 24 9 13 1013.6 1013.6 0.2
20/05:00pm 12.8 8.6 9.8 82 1.5 W 22 32 12 17 1013.9 1013.9 0.0
20/04:51pm 13.5 9.8 10.3 81 1.7 WSW 20 28 11 15 1013.9 1013.9 0.0
20/04:30pm 14.1 10.7 9.3 73 2.4 WSW 17 22 9 12 1013.7 1013.7 0.0
20/04:00pm 14.2 10.9 11.0 81 1.7 WSW 19 26 10 14 1012.9 1012.9 0.0
20/03:30pm 14.8 9.0 11.4 80 1.8 WSW 33 43 18 23 1012.5 1012.5 0.0
20/03:19pm 15.8 12.4 11.4 75 2.4 WSW 20 43 11 23 1011.9 1011.9 0.0
20/03:00pm 17.5 15.6 10.6 64 3.7 W 11 17 6 9 1012.3 1012.3 0.0

Other formats

Comma delimited format used in spreadsheet applications
http://www.bom.gov.au/fwo/IDS60801/IDS60801.95677.axf

JavaScript Object Notation format (JSON) in row-major order
http://www.bom.gov.au/fwo/IDS60801/IDS60801.95677.json

Data quality

Most of these data are generated automatically and are frequently updated. Quality checks on data are not normally performed. It is possible for incorrect values to appear. Refer to information at About Latest Weather Observations and please check the disclaimer before using these data.